createdAt,value
2023-06-24T00:01:35.242Z,17.33
2023-06-24T00:04:38.167Z,17.27
2023-06-24T00:07:46.261Z,17.23
2023-06-24T00:10:49.868Z,17.28
2023-06-24T00:13:52.668Z,17.27
2023-06-24T00:16:56.165Z,17.20
2023-06-24T00:19:59.013Z,17.15
2023-06-24T00:23:01.873Z,17.07
2023-06-24T00:26:04.824Z,17.05
2023-06-24T00:29:07.614Z,17.05
2023-06-24T00:32:10.425Z,17.07
2023-06-24T00:35:13.515Z,17.10
2023-06-24T00:38:16.313Z,17.08
2023-06-24T00:41:22.337Z,17.07
2023-06-24T00:44:25.314Z,16.99
2023-06-24T00:47:28.200Z,16.99
2023-06-24T00:50:30.972Z,16.94
2023-06-24T00:53:33.821Z,16.92
2023-06-24T00:56:39.846Z,16.89
2023-06-24T00:59:44.394Z,16.84
2023-06-24T01:02:51.018Z,16.85
2023-06-24T01:05:55.472Z,16.80
2023-06-24T01:08:59.133Z,16.82
2023-06-24T01:12:01.953Z,16.84
2023-06-24T01:15:06.072Z,16.83
2023-06-24T01:18:13.342Z,16.81
2023-06-24T01:21:29.384Z,16.80
2023-06-24T01:25:10.182Z,16.83
2023-06-24T01:28:35.923Z,16.84
2023-06-24T01:31:40.324Z,16.86
2023-06-24T01:35:05.700Z,16.85
2023-06-24T01:38:24.162Z,16.82
2023-06-24T01:41:28.083Z,16.78
2023-06-24T01:44:31.773Z,16.77
2023-06-24T01:47:35.800Z,16.72
2023-06-24T01:50:40.724Z,16.66
2023-06-24T01:53:47.062Z,16.58
2023-06-24T01:56:51.190Z,16.52
2023-06-24T01:59:56.168Z,16.50
2023-06-24T02:02:59.463Z,16.50
2023-06-24T02:06:03.611Z,16.51
2023-06-24T02:09:07.261Z,16.53
2023-06-24T02:12:10.656Z,16.46
2023-06-24T02:15:13.729Z,16.40
2023-06-24T02:18:17.186Z,16.36
2023-06-24T02:21:21.543Z,16.33
2023-06-24T02:24:24.949Z,16.34
2023-06-24T02:27:28.026Z,16.32
2023-06-24T02:30:30.838Z,16.21
2023-06-24T02:33:33.645Z,16.25
2023-06-24T02:36:36.374Z,16.19
2023-06-24T02:39:45.397Z,16.18
2023-06-24T02:42:48.333Z,16.16
2023-06-24T02:45:51.506Z,16.15
2023-06-24T02:48:54.594Z,16.18
2023-06-24T02:51:57.439Z,16.18
2023-06-24T02:55:00.380Z,16.14
2023-06-24T02:58:03.879Z,16.17
2023-06-24T03:01:08.194Z,16.16
2023-06-24T03:04:11.014Z,16.12
2023-06-24T03:07:14.242Z,16.11
2023-06-24T03:10:17.099Z,16.11
2023-06-24T03:13:19.977Z,16.09
2023-06-24T03:16:22.808Z,16.07
2023-06-24T03:19:25.563Z,16.04
2023-06-24T03:22:28.343Z,16.06
2023-06-24T03:25:31.004Z,16.06
2023-06-24T03:28:33.914Z,16.01
2023-06-24T03:31:36.712Z,16.02
2023-06-24T03:34:39.494Z,16.01
2023-06-24T03:37:42.229Z,15.99
2023-06-24T03:40:45.260Z,16.04
2023-06-24T03:43:48.307Z,16.07
2023-06-24T03:46:51.100Z,16.07
2023-06-24T03:49:53.795Z,16.11
2023-06-24T03:52:56.501Z,16.15
2023-06-24T03:55:59.464Z,16.19
2023-06-24T03:59:03.880Z,16.29
2023-06-24T04:02:10.627Z,16.32
2023-06-24T04:05:13.391Z,16.45
2023-06-24T04:08:16.020Z,16.53
2023-06-24T04:11:19.232Z,16.64
2023-06-24T04:14:21.937Z,16.76
2023-06-24T04:17:25.219Z,16.86
2023-06-24T04:20:27.969Z,17.00
2023-06-24T04:23:30.690Z,17.09
2023-06-24T04:26:33.443Z,17.14
2023-06-24T04:29:36.128Z,17.22
2023-06-24T04:32:38.916Z,17.34
2023-06-24T04:35:41.752Z,17.40
2023-06-24T04:38:44.481Z,17.38
2023-06-24T04:41:48.076Z,17.41
2023-06-24T04:44:53.540Z,17.52
2023-06-24T04:47:56.438Z,17.77
2023-06-24T04:50:59.421Z,17.93
2023-06-24T04:54:02.476Z,18.03
2023-06-24T04:57:10.075Z,17.98
2023-06-24T05:00:13.155Z,18.02
2023-06-24T05:03:15.979Z,18.16
2023-06-24T05:06:18.802Z,18.28
2023-06-24T05:09:21.527Z,18.54
2023-06-24T05:12:24.382Z,18.63
2023-06-24T05:15:27.535Z,18.61
2023-06-24T05:18:30.287Z,18.86
2023-06-24T05:21:32.954Z,18.89
2023-06-24T05:24:35.847Z,19.07
2023-06-24T05:27:38.633Z,19.18
2023-06-24T05:30:42.780Z,19.12
2023-06-24T05:33:45.565Z,19.14
2023-06-24T05:36:48.277Z,19.01
2023-06-24T05:39:51.025Z,19.17
2023-06-24T05:42:53.798Z,19.15
2023-06-24T05:45:56.467Z,19.26
2023-06-24T05:48:59.285Z,19.16
2023-06-24T05:52:02.020Z,19.35
2023-06-24T05:55:05.152Z,18.95
2023-06-24T05:58:07.863Z,19.03
2023-06-24T06:01:13.764Z,18.90
2023-06-24T06:04:16.600Z,18.90
2023-06-24T06:07:20.251Z,18.92
2023-06-24T06:10:23.304Z,19.10
2023-06-24T06:13:26.012Z,19.36
2023-06-24T06:16:29.734Z,19.46
2023-06-24T06:19:32.424Z,19.55
2023-06-24T06:22:39.058Z,19.69
2023-06-24T06:25:41.812Z,19.68
2023-06-24T06:28:44.465Z,19.55
2023-06-24T06:31:47.226Z,19.89
2023-06-24T06:34:50.044Z,20.25
2023-06-24T06:37:56.871Z,20.15
2023-06-24T06:41:00.023Z,19.97
2023-06-24T06:44:02.864Z,19.49
2023-06-24T06:47:05.934Z,19.48
2023-06-24T06:50:11.769Z,19.25
2023-06-24T06:53:14.577Z,19.11
2023-06-24T06:56:27.039Z,19.21
2023-06-24T06:59:29.770Z,19.29
2023-06-24T07:02:32.561Z,19.55
2023-06-24T07:05:38.515Z,19.61
2023-06-24T07:08:41.962Z,19.99
2023-06-24T07:11:44.891Z,20.04
2023-06-24T07:14:47.705Z,19.75
2023-06-24T07:17:50.496Z,19.52
2023-06-24T07:20:54.917Z,19.72
2023-06-24T07:23:57.688Z,19.88
2023-06-24T07:27:00.430Z,19.94
2023-06-24T07:30:03.263Z,19.95
2023-06-24T07:33:06.892Z,20.15
2023-06-24T07:36:11.981Z,20.14
2023-06-24T07:39:14.955Z,20.12
2023-06-24T07:42:20.668Z,20.10
2023-06-24T07:45:23.734Z,19.92
2023-06-24T07:48:26.590Z,19.73
2023-06-24T07:51:29.387Z,19.80
2023-06-24T07:54:32.261Z,19.74
2023-06-24T07:57:34.955Z,19.70
2023-06-24T08:00:39.701Z,19.83
2023-06-24T08:03:42.810Z,19.77
2023-06-24T08:06:45.776Z,19.86
2023-06-24T08:09:48.516Z,19.71
2023-06-24T08:12:51.228Z,20.05
2023-06-24T08:15:54.025Z,19.81
2023-06-24T08:18:56.861Z,19.94
2023-06-24T08:21:59.602Z,19.65
2023-06-24T08:25:02.398Z,19.63
2023-06-24T08:28:05.258Z,19.65
2023-06-24T08:31:08.033Z,19.91
2023-06-24T08:34:10.807Z,19.96
2023-06-24T08:37:13.570Z,19.93
2023-06-24T08:40:16.330Z,19.76
2023-06-24T08:43:19.109Z,19.91
2023-06-24T08:46:25.865Z,19.91
2023-06-24T08:49:32.575Z,19.72
2023-06-24T08:52:38.096Z,19.72
2023-06-24T08:55:50.277Z,20.05
2023-06-24T08:58:53.248Z,20.00
2023-06-24T09:01:55.993Z,20.31
2023-06-24T09:04:58.821Z,20.18
2023-06-24T09:08:01.459Z,20.58
2023-06-24T09:11:04.494Z,20.43
2023-06-24T09:14:07.137Z,20.72
2023-06-24T09:17:10.850Z,20.86
2023-06-24T09:20:13.638Z,20.79
2023-06-24T09:23:18.314Z,20.73
2023-06-24T09:26:20.990Z,21.24
2023-06-24T09:29:34.139Z,21.68
2023-06-24T09:32:37.790Z,21.26
2023-06-24T09:35:40.767Z,21.47
2023-06-24T09:38:45.947Z,21.97
2023-06-24T09:41:52.454Z,22.05
2023-06-24T09:44:57.219Z,21.16
2023-06-24T09:48:01.508Z,21.37
2023-06-24T09:51:05.962Z,21.28
2023-06-24T09:54:09.981Z,20.85
2023-06-24T09:57:13.381Z,20.81
2023-06-24T10:00:17.936Z,20.79
2023-06-24T10:03:21.107Z,20.65
2023-06-24T10:06:28.576Z,20.38
2023-06-24T10:09:31.373Z,21.05
2023-06-24T10:12:36.567Z,21.52
2023-06-24T10:15:39.457Z,21.93
2023-06-24T10:18:42.578Z,22.42
2023-06-24T10:21:49.450Z,21.96
2023-06-24T10:24:53.752Z,21.50
2023-06-24T10:27:56.578Z,21.16
2023-06-24T10:30:59.369Z,21.10
2023-06-24T10:34:02.261Z,22.03
2023-06-24T10:37:22.078Z,22.45
2023-06-24T10:40:54.325Z,22.86
2023-06-24T10:43:59.339Z,22.71
2023-06-24T10:47:02.518Z,23.29
2023-06-24T10:50:06.959Z,23.48
2023-06-24T10:53:10.081Z,24.24
2023-06-24T10:56:12.830Z,24.33
2023-06-24T10:59:15.635Z,23.36
2023-06-24T11:02:20.455Z,23.44
2023-06-24T11:05:23.490Z,22.75
2023-06-24T11:08:26.672Z,23.25
2023-06-24T11:11:30.945Z,23.13
2023-06-24T11:14:37.853Z,23.59
2023-06-24T11:17:42.485Z,23.50
2023-06-24T11:20:45.647Z,23.03
2023-06-24T11:23:48.528Z,23.40
2023-06-24T11:26:52.856Z,23.06
2023-06-24T11:29:59.617Z,22.57
2023-06-24T11:33:03.745Z,22.98
2023-06-24T11:36:11.327Z,23.62
2023-06-24T11:39:28.589Z,23.07
2023-06-24T11:42:31.975Z,23.06
2023-06-24T11:45:34.852Z,23.60
2023-06-24T11:48:41.988Z,22.85
2023-06-24T11:51:51.759Z,22.83
2023-06-24T11:54:54.499Z,22.43
2023-06-24T11:58:07.642Z,22.84
2023-06-24T12:01:10.503Z,22.75
2023-06-24T12:04:14.911Z,22.83
2023-06-24T12:07:17.954Z,23.38
2023-06-24T12:10:20.802Z,22.74
2023-06-24T12:13:24.387Z,22.57
2023-06-24T12:16:27.961Z,22.45
2023-06-24T12:19:30.717Z,22.67
2023-06-24T12:22:33.623Z,23.02
2023-06-24T12:25:36.452Z,22.57
2023-06-24T12:28:39.522Z,22.16
2023-06-24T12:31:42.995Z,22.25
2023-06-24T12:34:45.760Z,22.59
2023-06-24T12:37:49.114Z,23.58
2023-06-24T12:40:52.016Z,23.19
2023-06-24T12:43:54.744Z,23.23
2023-06-24T12:46:57.532Z,23.62
2023-06-24T12:50:00.343Z,23.82
2023-06-24T12:53:04.395Z,23.92
2023-06-24T12:56:07.165Z,23.29
2023-06-24T12:59:13.036Z,23.62
2023-06-24T13:02:15.719Z,23.67
2023-06-24T13:05:19.410Z,23.39
2023-06-24T13:08:22.310Z,24.25
2023-06-24T13:11:25.084Z,24.66
2023-06-24T13:14:29.523Z,24.29
2023-06-24T13:17:32.671Z,24.56
2023-06-24T13:20:35.871Z,23.74
2023-06-24T13:23:40.096Z,24.60
2023-06-24T13:26:43.203Z,24.82
2023-06-24T13:29:46.239Z,25.27
2023-06-24T13:32:50.513Z,24.42
2023-06-24T13:35:53.986Z,24.41
2023-06-24T13:38:56.756Z,23.93
2023-06-24T13:41:59.639Z,23.72
2023-06-24T13:45:03.000Z,24.11
2023-06-24T13:48:05.883Z,24.48
2023-06-24T13:51:08.678Z,25.09
2023-06-24T13:54:11.517Z,25.07
2023-06-24T13:57:14.544Z,25.17
2023-06-24T14:00:17.584Z,25.20
2023-06-24T14:03:20.288Z,24.92
2023-06-24T14:06:24.188Z,25.41
2023-06-24T14:09:26.959Z,25.98
2023-06-24T14:12:30.125Z,25.84
2023-06-24T14:15:32.870Z,25.80
2023-06-24T14:18:36.226Z,24.91
2023-06-24T14:21:39.321Z,24.98
2023-06-24T14:24:43.238Z,25.50
2023-06-24T14:27:45.988Z,24.68
2023-06-24T14:30:49.312Z,24.92
2023-06-24T14:33:52.273Z,24.73
2023-06-24T14:36:55.023Z,23.51
2023-06-24T14:39:57.906Z,23.54
2023-06-24T14:43:01.182Z,24.55
2023-06-24T14:46:04.305Z,24.30
2023-06-24T14:49:07.114Z,23.81
2023-06-24T14:52:10.329Z,23.82
2023-06-24T14:55:13.295Z,23.43
2023-06-24T14:58:17.850Z,23.25
2023-06-24T15:01:22.181Z,22.75
2023-06-24T15:04:25.179Z,22.77
2023-06-24T15:07:27.938Z,22.59
2023-06-24T15:10:31.118Z,22.77
2023-06-24T15:13:34.109Z,24.01
2023-06-24T15:16:36.863Z,24.48
2023-06-24T15:19:39.591Z,25.40
2023-06-24T15:22:43.154Z,23.90
2023-06-24T15:25:45.806Z,24.12
2023-06-24T15:28:49.346Z,24.06
2023-06-24T15:31:52.092Z,24.71
2023-06-24T15:34:55.003Z,24.38
2023-06-24T15:37:59.321Z,25.28
2023-06-24T15:41:02.062Z,24.77
2023-06-24T15:44:08.103Z,24.68
2023-06-24T15:47:11.690Z,25.40
2023-06-24T15:50:14.498Z,25.07
2023-06-24T15:53:17.529Z,25.07
2023-06-24T15:56:20.215Z,25.24
2023-06-24T15:59:26.309Z,25.02
2023-06-24T16:02:29.103Z,24.80
2023-06-24T16:05:31.928Z,24.85
2023-06-24T16:08:34.647Z,24.59
2023-06-24T16:11:37.398Z,24.96
2023-06-24T16:14:40.145Z,23.73
2023-06-24T16:17:42.928Z,23.35
2023-06-24T16:20:45.866Z,23.16
2023-06-24T16:23:49.008Z,23.30
2023-06-24T16:26:53.147Z,23.60
2023-06-24T16:29:56.069Z,23.30
2023-06-24T16:32:58.851Z,22.80
2023-06-24T16:36:01.813Z,22.62
2023-06-24T16:39:05.184Z,22.23
2023-06-24T16:42:08.076Z,22.19
2023-06-24T16:45:11.011Z,22.08
2023-06-24T16:48:13.814Z,21.91
2023-06-24T16:51:16.724Z,21.88
2023-06-24T16:54:20.632Z,21.61
2023-06-24T16:57:23.609Z,21.64
2023-06-24T17:00:26.363Z,21.51
2023-06-24T17:03:30.527Z,21.40
2023-06-24T17:06:36.328Z,21.44
2023-06-24T17:09:39.073Z,21.48
2023-06-24T17:12:42.522Z,21.41
2023-06-24T17:15:48.653Z,21.45
2023-06-24T17:18:51.403Z,21.58
2023-06-24T17:21:55.319Z,21.47
2023-06-24T17:24:58.198Z,21.59
2023-06-24T17:28:01.009Z,21.56
2023-06-24T17:31:03.744Z,21.42
2023-06-24T17:34:06.506Z,21.39
2023-06-24T17:37:15.569Z,21.23
2023-06-24T17:40:18.269Z,21.24
2023-06-24T17:43:27.797Z,21.13
2023-06-24T17:46:46.981Z,21.01
2023-06-24T17:49:52.711Z,20.84
2023-06-24T17:52:55.514Z,20.72
2023-06-24T17:55:58.392Z,20.65
2023-06-24T17:59:01.132Z,20.66
2023-06-24T18:02:04.472Z,20.58
2023-06-24T18:05:07.916Z,20.50
2023-06-24T18:08:10.697Z,20.50
2023-06-24T18:11:13.383Z,20.46
2023-06-24T18:14:32.086Z,20.42
2023-06-24T18:17:35.912Z,20.39
2023-06-24T18:20:49.460Z,20.24
2023-06-24T18:23:54.777Z,20.21
2023-06-24T18:26:57.576Z,20.13
2023-06-24T18:30:00.325Z,20.06
2023-06-24T18:33:06.734Z,20.00
2023-06-24T18:36:13.795Z,19.92
2023-06-24T18:39:18.848Z,19.90
2023-06-24T18:42:25.427Z,19.80
2023-06-24T18:45:28.700Z,19.76
2023-06-24T18:48:33.719Z,19.66
2023-06-24T18:51:36.857Z,19.60
2023-06-24T18:54:39.806Z,19.56
2023-06-24T18:57:44.630Z,19.49
2023-06-24T19:00:48.014Z,19.42
2023-06-24T19:03:50.832Z,19.37
2023-06-24T19:06:53.724Z,19.28
2023-06-24T19:09:56.417Z,19.25
2023-06-24T19:12:59.746Z,19.16
2023-06-24T19:16:02.581Z,19.17
2023-06-24T19:19:06.939Z,19.17
2023-06-24T19:22:09.729Z,19.13
2023-06-24T19:25:13.300Z,19.14
2023-06-24T19:28:16.172Z,19.11
2023-06-24T19:31:19.209Z,19.13
2023-06-24T19:34:22.015Z,19.13
2023-06-24T19:37:24.652Z,19.13
2023-06-24T19:40:27.673Z,19.10
2023-06-24T19:43:30.388Z,19.06
2023-06-24T19:46:41.038Z,19.04
2023-06-24T19:49:54.338Z,19.05
2023-06-24T19:52:57.199Z,19.02
2023-06-24T19:56:00.024Z,19.02
2023-06-24T19:59:02.877Z,18.97
2023-06-24T20:02:05.932Z,18.92
2023-06-24T20:05:08.966Z,18.90
2023-06-24T20:08:11.683Z,18.86
2023-06-24T20:11:14.837Z,18.85
2023-06-24T20:14:17.610Z,18.85
2023-06-24T20:17:20.450Z,18.81
2023-06-24T20:20:23.202Z,18.80
2023-06-24T20:23:26.012Z,18.78
2023-06-24T20:26:28.834Z,18.77
2023-06-24T20:29:31.571Z,18.77
2023-06-24T20:32:35.793Z,18.73
2023-06-24T20:35:38.551Z,18.71
2023-06-24T20:38:41.270Z,18.72
2023-06-24T20:41:44.021Z,18.72
2023-06-24T20:44:47.241Z,18.69
2023-06-24T20:47:50.029Z,18.69
2023-06-24T20:50:52.800Z,18.68
2023-06-24T20:53:55.547Z,18.66
2023-06-24T20:56:58.409Z,18.64
2023-06-24T21:00:01.147Z,18.63
2023-06-24T21:03:04.044Z,18.59
2023-06-24T21:06:07.508Z,18.59
2023-06-24T21:09:10.237Z,18.55
2023-06-24T21:12:13.129Z,18.52
2023-06-24T21:15:18.310Z,18.51
2023-06-24T21:18:21.307Z,18.51
2023-06-24T21:21:24.067Z,18.49
2023-06-24T21:24:27.034Z,18.49
2023-06-24T21:27:29.727Z,18.51
2023-06-24T21:30:32.480Z,18.49
2023-06-24T21:33:35.172Z,18.47
2023-06-24T21:36:38.368Z,18.45
2023-06-24T21:39:41.085Z,18.42
2023-06-24T21:42:43.908Z,18.41
2023-06-24T21:45:46.608Z,18.37
2023-06-24T21:48:49.392Z,18.40
2023-06-24T21:51:54.504Z,18.33
2023-06-24T21:54:57.321Z,18.30
2023-06-24T21:58:00.035Z,18.29
2023-06-24T22:01:08.902Z,18.27
2023-06-24T22:04:11.722Z,18.13
2023-06-24T22:07:14.601Z,18.23
2023-06-24T22:10:17.388Z,18.18
2023-06-24T22:13:28.994Z,18.17
2023-06-24T22:16:31.733Z,18.06
2023-06-24T22:19:37.511Z,18.12
2023-06-24T22:22:44.366Z,18.10
2023-06-24T22:25:47.144Z,18.06
2023-06-24T22:28:50.539Z,18.00
2023-06-24T22:31:53.299Z,17.95
2023-06-24T22:34:58.901Z,17.94
2023-06-24T22:38:01.718Z,17.81
2023-06-24T22:41:04.830Z,17.90
2023-06-24T22:44:07.900Z,17.91
2023-06-24T22:47:10.685Z,17.89
2023-06-24T22:50:13.449Z,17.88
2023-06-24T22:53:19.255Z,17.87
2023-06-24T22:56:22.256Z,17.85
2023-06-24T22:59:25.278Z,17.82
2023-06-24T23:02:31.196Z,17.80
2023-06-24T23:05:34.216Z,17.75
2023-06-24T23:08:37.301Z,17.76
2023-06-24T23:11:40.156Z,17.70
2023-06-24T23:14:43.275Z,17.70
2023-06-24T23:17:46.289Z,17.67
2023-06-24T23:20:49.301Z,17.55
2023-06-24T23:23:53.461Z,17.58
2023-06-24T23:27:00.501Z,17.57
2023-06-24T23:30:10.278Z,17.56
2023-06-24T23:33:19.793Z,17.54
2023-06-24T23:36:22.738Z,17.50
2023-06-24T23:39:25.572Z,17.46
2023-06-24T23:42:29.062Z,17.42
2023-06-24T23:45:32.148Z,17.38
2023-06-24T23:48:34.959Z,17.33
2023-06-24T23:51:37.667Z,17.24
2023-06-24T23:54:40.348Z,17.19
2023-06-24T23:57:43.003Z,17.07
